Akiak, Alaska
Current Conditions -  °F | °C
As of 6:56 PM on Friday 28 Nov 2014 (Local Time) from PFKW Reporting Station
Overcast Overcast  
Wind Chill: 26°   Ceiling: 1900
Heat Index: 26°   Visibility: 10mi
Dew Point: 25°   Wind: 3mph
Humidity: 96%   Direction: 150°SSE
Pressure: 30.08"   Gusts: NA
Location:  60.92°N, 161.23°W
Report Text: PFKW 290356Z AUTO 15003KT 10SM OVC019 M03/M04 A3008 RMK AO2 SLP186 T10331039 FZRANO
Loading
Personal Weather Stations






























Interactive Weather Map New forecast layout! Learn more

10-Day Weather Forecast

Advertisements
Track Severe Weather on mobile